<?xml version="1.0" encoding="utf-8"?>
<gpx xmlns:xsi="http://www.w3.org/2001/XMLSchema-instance" xmlns:xsd="http://www.w3.org/2001/XMLSchema" version="1.1" creator="Shapelink.com" xmlns="http://www.topografix.com/GPX/1/1" xmlns:gpxtpx="http://www.garmin.com/xmlschemas/TrackPointExtension/v1">
  <metadata>
    <name>Löpning 10.07 km, 2019-05-16</name>
    <desc></desc>
    <author><name>Marian Moron</name></author> 
    <time>2019-05-16T21:31:05Z</time>
  </metadata>
  <trk>
    <name>Löpning 10.07 km, 2019-05-16</name>
    <trkseg>
      <trkpt lat="51.229911033263" lon="4.458256083253">
        <ele>2.8</ele>
        <time>2019-05-16T21:31:05Z</time>
      </trkpt>
      <trkpt lat="51.22996157612" lon="4.458582642077">
        <ele>6</ele>
        <time>2019-05-16T21:31:13Z</time>
      </trkpt>
      <trkpt lat="51.230019746506" lon="4.458745083299">
        <ele>6</ele>
        <time>2019-05-16T21:31:18Z</time>
      </trkpt>
      <trkpt lat="51.230201885193" lon="4.458727062214">
        <ele>5.6</ele>
        <time>2019-05-16T21:31:25Z</time>
      </trkpt>
      <trkpt lat="51.23038402388" lon="4.458746340584">
        <ele>5.2</ele>
        <time>2019-05-16T21:31:32Z</time>
      </trkpt>
      <trkpt lat="51.230445547026" lon="4.459044903862">
        <ele>4.8</ele>
        <time>2019-05-16T21:31:39Z</time>
      </trkpt>
      <trkpt lat="51.230478571712" lon="4.459335336697">
        <ele>6</ele>
        <time>2019-05-16T21:31:46Z</time>
      </trkpt>
      <trkpt lat="51.2305248398" lon="4.459643371522">
        <ele>7.2</ele>
        <time>2019-05-16T21:31:53Z</time>
      </trkpt>
      <trkpt lat="51.230552080975" lon="4.459939252592">
        <ele>8.2</ele>
        <time>2019-05-16T21:32:00Z</time>
      </trkpt>
      <trkpt lat="51.230589128973" lon="4.460247957969">
        <ele>9</ele>
        <time>2019-05-16T21:32:07Z</time>
      </trkpt>
      <trkpt lat="51.230541855057" lon="4.460538809899">
        <ele>8.6</ele>
        <time>2019-05-16T21:32:14Z</time>
      </trkpt>
      <trkpt lat="51.230360806017" lon="4.460618605587">
        <ele>8</ele>
        <time>2019-05-16T21:32:20Z</time>
      </trkpt>
      <trkpt lat="51.230183277375" lon="4.46067283648">
        <ele>8.4</ele>
        <time>2019-05-16T21:32:26Z</time>
      </trkpt>
      <trkpt lat="51.229988733476" lon="4.460741484241">
        <ele>8.2</ele>
        <time>2019-05-16T21:32:33Z</time>
      </trkpt>
      <trkpt lat="51.229805086047" lon="4.460808371803">
        <ele>8.4</ele>
        <time>2019-05-16T21:32:40Z</time>
      </trkpt>
      <trkpt lat="51.229715734993" lon="4.461056392224">
        <ele>7.4</ele>
        <time>2019-05-16T21:32:47Z</time>
      </trkpt>
      <trkpt lat="51.229805421323" lon="4.461350596914">
        <ele>6.6</ele>
        <time>2019-05-16T21:32:54Z</time>
      </trkpt>
      <trkpt lat="51.229873063256" lon="4.461618482438">
        <ele>6</ele>
        <time>2019-05-16T21:33:01Z</time>
      </trkpt>
      <trkpt lat="51.229941878655" lon="4.461909921101">
        <ele>5.2</ele>
        <time>2019-05-16T21:33:08Z</time>
      </trkpt>
      <trkpt lat="51.230020668515" lon="4.462187529629">
        <ele>4.8</ele>
        <time>2019-05-16T21:33:15Z</time>
      </trkpt>
      <trkpt lat="51.230097530538" lon="4.462460360474">
        <ele>3.8</ele>
        <time>2019-05-16T21:33:23Z</time>
      </trkpt>
      <trkpt lat="51.230184618479" lon="4.46275741501">
        <ele>4.4</ele>
        <time>2019-05-16T21:33:31Z</time>
      </trkpt>
      <trkpt lat="51.230263408339" lon="4.463053966632">
        <ele>5</ele>
        <time>2019-05-16T21:33:39Z</time>
      </trkpt>
      <trkpt lat="51.230326607865" lon="4.463334844101">
        <ele>4.2</ele>
        <time>2019-05-16T21:33:47Z</time>
      </trkpt>
      <trkpt lat="51.230401206775" lon="4.463627120954">
        <ele>3.4</ele>
        <time>2019-05-16T21:33:55Z</time>
      </trkpt>
      <trkpt lat="51.230495419331" lon="4.463872459167">
        <ele>2.6</ele>
        <time>2019-05-16T21:34:02Z</time>
      </trkpt>
      <trkpt lat="51.230574963562" lon="4.464141601976">
        <ele>2.6</ele>
        <time>2019-05-16T21:34:09Z</time>
      </trkpt>
      <trkpt lat="51.230655262164" lon="4.464415103373">
        <ele>2.4</ele>
        <time>2019-05-16T21:34:16Z</time>
      </trkpt>
      <trkpt lat="51.230717539681" lon="4.464701093801">
        <ele>1.6</ele>
        <time>2019-05-16T21:34:23Z</time>
      </trkpt>
      <trkpt lat="51.230742014829" lon="4.465007452246">
        <ele>1.2</ele>
        <time>2019-05-16T21:34:30Z</time>
      </trkpt>
      <trkpt lat="51.230754084765" lon="4.465296041063">
        <ele>1.4</ele>
        <time>2019-05-16T21:34:36Z</time>
      </trkpt>
      <trkpt lat="51.230755174412" lon="4.465610194675">
        <ele>2.6</ele>
        <time>2019-05-16T21:34:43Z</time>
      </trkpt>
      <trkpt lat="51.230738745888" lon="4.465899454044">
        <ele>2.8</ele>
        <time>2019-05-16T21:34:50Z</time>
      </trkpt>
      <trkpt lat="51.230748301254" lon="4.466200196616">
        <ele>4</ele>
        <time>2019-05-16T21:34:57Z</time>
      </trkpt>
      <trkpt lat="51.230727262685" lon="4.466517367712">
        <ele>5.4</ele>
        <time>2019-05-16T21:35:05Z</time>
      </trkpt>
      <trkpt lat="51.230715276568" lon="4.466811404764">
        <ele>6.2</ele>
        <time>2019-05-16T21:35:12Z</time>
      </trkpt>
      <trkpt lat="51.230740170811" lon="4.467100664133">
        <ele>6.2</ele>
        <time>2019-05-16T21:35:20Z</time>
      </trkpt>
      <trkpt lat="51.230924824068" lon="4.467059425185">
        <ele>5.4</ele>
        <time>2019-05-16T21:35:28Z</time>
      </trkpt>
      <trkpt lat="51.231125654392" lon="4.467064789601">
        <ele>0</ele>
        <time>2019-05-16T21:35:36Z</time>
      </trkpt>
      <trkpt lat="51.231335118073" lon="4.467055401873">
        <ele>0</ele>
        <time>2019-05-16T21:35:43Z</time>
      </trkpt>
      <trkpt lat="51.231528320868" lon="4.467107453472">
        <ele>0</ele>
        <time>2019-05-16T21:35:52Z</time>
      </trkpt>
      <trkpt lat="51.231719512007" lon="4.467213735964">
        <ele>0</ele>
        <time>2019-05-16T21:36:00Z</time>
      </trkpt>
      <trkpt lat="51.231874660976" lon="4.467390258778">
        <ele>0.2</ele>
        <time>2019-05-16T21:36:07Z</time>
      </trkpt>
      <trkpt lat="51.232049926505" lon="4.467541887349">
        <ele>1.2</ele>
        <time>2019-05-16T21:36:15Z</time>
      </trkpt>
      <trkpt lat="51.232178253394" lon="4.467769875029">
        <ele>3</ele>
        <time>2019-05-16T21:36:22Z</time>
      </trkpt>
      <trkpt lat="51.232291073768" lon="4.468015967613">
        <ele>2.6</ele>
        <time>2019-05-16T21:36:29Z</time>
      </trkpt>
      <trkpt lat="51.232396350432" lon="4.468254181211">
        <ele>2.4</ele>
        <time>2019-05-16T21:36:36Z</time>
      </trkpt>
      <trkpt lat="51.232599192412" lon="4.468661206275">
        <ele>0</ele>
        <time>2019-05-16T21:36:49Z</time>
      </trkpt>
      <trkpt lat="51.232726932568" lon="4.468906293031">
        <ele>0</ele>
        <time>2019-05-16T21:36:57Z</time>
      </trkpt>
      <trkpt lat="51.232854505086" lon="4.469138890756">
        <ele>0</ele>
        <time>2019-05-16T21:37:05Z</time>
      </trkpt>
      <trkpt lat="51.232987022925" lon="4.46938163058">
        <ele>0</ele>
        <time>2019-05-16T21:37:13Z</time>
      </trkpt>
      <trkpt lat="51.233130604872" lon="4.469592938279">
        <ele>0</ele>
        <time>2019-05-16T21:37:20Z</time>
      </trkpt>
      <trkpt lat="51.233239569572" lon="4.46982838585">
        <ele>0</ele>
        <time>2019-05-16T21:37:27Z</time>
      </trkpt>
      <trkpt lat="51.233341828752" lon="4.470071712407">
        <ele>0</ele>
        <time>2019-05-16T21:37:34Z</time>
      </trkpt>
      <trkpt lat="51.233433945833" lon="4.470323420864">
        <ele>0</ele>
        <time>2019-05-16T21:37:41Z</time>
      </trkpt>
      <trkpt lat="51.233524805629" lon="4.470597592813">
        <ele>0</ele>
        <time>2019-05-16T21:37:49Z</time>
      </trkpt>
      <trkpt lat="51.233618766728" lon="4.470852570211">
        <ele>0</ele>
        <time>2019-05-16T21:37:56Z</time>
      </trkpt>
      <trkpt lat="51.233733850215" lon="4.47111919845">
        <ele>0</ele>
        <time>2019-05-16T21:38:04Z</time>
      </trkpt>
      <trkpt lat="51.233850861539" lon="4.471354981297">
        <ele>0</ele>
        <time>2019-05-16T21:38:11Z</time>
      </trkpt>
      <trkpt lat="51.233953288357" lon="4.4716011577">
        <ele>0</ele>
        <time>2019-05-16T21:38:18Z</time>
      </trkpt>
      <trkpt lat="51.234069126215" lon="4.471865103731">
        <ele>0</ele>
        <time>2019-05-16T21:38:26Z</time>
      </trkpt>
      <trkpt lat="51.234178426191" lon="4.472108765564">
        <ele>0</ele>
        <time>2019-05-16T21:38:33Z</time>
      </trkpt>
      <trkpt lat="51.234297030076" lon="4.472369275016">
        <ele>0</ele>
        <time>2019-05-16T21:38:41Z</time>
      </trkpt>
      <trkpt lat="51.234418316169" lon="4.472615870514">
        <ele>0</ele>
        <time>2019-05-16T21:38:49Z</time>
      </trkpt>
      <trkpt lat="51.234559215908" lon="4.472854754664">
        <ele>0</ele>
        <time>2019-05-16T21:38:57Z</time>
      </trkpt>
      <trkpt lat="51.234694583593" lon="4.473056506997">
        <ele>0</ele>
        <time>2019-05-16T21:39:04Z</time>
      </trkpt>
      <trkpt lat="51.234795836945" lon="4.473294972052">
        <ele>0.4</ele>
        <time>2019-05-16T21:39:15Z</time>
      </trkpt>
      <trkpt lat="51.234907567672" lon="4.473564701594">
        <ele>0</ele>
        <time>2019-05-16T21:39:24Z</time>
      </trkpt>
      <trkpt lat="51.235065231211" lon="4.473745499177">
        <ele>0</ele>
        <time>2019-05-16T21:39:31Z</time>
      </trkpt>
      <trkpt lat="51.23513991394" lon="4.474012211235">
        <ele>0</ele>
        <time>2019-05-16T21:39:38Z</time>
      </trkpt>
      <trkpt lat="51.235209148434" lon="4.474319240232">
        <ele>0</ele>
        <time>2019-05-16T21:39:46Z</time>
      </trkpt>
      <trkpt lat="51.235275197806" lon="4.474599447149">
        <ele>0</ele>
        <time>2019-05-16T21:39:53Z</time>
      </trkpt>
      <trkpt lat="51.235322723179" lon="4.474894825305">
        <ele>0</ele>
        <time>2019-05-16T21:40:01Z</time>
      </trkpt>
      <trkpt lat="51.235385000696" lon="4.475188778538">
        <ele>0</ele>
        <time>2019-05-16T21:40:08Z</time>
      </trkpt>
      <trkpt lat="51.235455743932" lon="4.475459010994">
        <ele>0</ele>
        <time>2019-05-16T21:40:15Z</time>
      </trkpt>
      <trkpt lat="51.235520033105" lon="4.475763776878">
        <ele>0</ele>
        <time>2019-05-16T21:40:22Z</time>
      </trkpt>
      <trkpt lat="51.235566049736" lon="4.476050773134">
        <ele>0</ele>
        <time>2019-05-16T21:40:29Z</time>
      </trkpt>
      <trkpt lat="51.235607791598" lon="4.476347911489">
        <ele>0</ele>
        <time>2019-05-16T21:40:37Z</time>
      </trkpt>
      <trkpt lat="51.235674008608" lon="4.476634740107">
        <ele>0</ele>
        <time>2019-05-16T21:40:44Z</time>
      </trkpt>
      <trkpt lat="51.23573419065" lon="4.476935901774">
        <ele>0</ele>
        <time>2019-05-16T21:40:52Z</time>
      </trkpt>
      <trkpt lat="51.235799485651" lon="4.477250139205">
        <ele>0</ele>
        <time>2019-05-16T21:40:59Z</time>
      </trkpt>
      <trkpt lat="51.235874671294" lon="4.477529256475">
        <ele>0</ele>
        <time>2019-05-16T21:41:05Z</time>
      </trkpt>
      <trkpt lat="51.235930997662" lon="4.477827735934">
        <ele>0</ele>
        <time>2019-05-16T21:41:12Z</time>
      </trkpt>
      <trkpt lat="51.235970141135" lon="4.478134178198">
        <ele>0</ele>
        <time>2019-05-16T21:41:20Z</time>
      </trkpt>
      <trkpt lat="51.236023114743" lon="4.47842570068">
        <ele>0</ele>
        <time>2019-05-16T21:41:27Z</time>
      </trkpt>
      <trkpt lat="51.23605857018" lon="4.478749661115">
        <ele>0</ele>
        <time>2019-05-16T21:41:34Z</time>
      </trkpt>
      <trkpt lat="51.236054127773" lon="4.479057528302">
        <ele>0</ele>
        <time>2019-05-16T21:41:41Z</time>
      </trkpt>
      <trkpt lat="51.236055301239" lon="4.479353493191">
        <ele>0</ele>
        <time>2019-05-16T21:41:48Z</time>
      </trkpt>
      <trkpt lat="51.236040465276" lon="4.479666054242">
        <ele>0</ele>
        <time>2019-05-16T21:41:55Z</time>
      </trkpt>
      <trkpt lat="51.23603677724" lon="4.479957828181">
        <ele>0</ele>
        <time>2019-05-16T21:42:02Z</time>
      </trkpt>
      <trkpt lat="51.236029736444" lon="4.480251362319">
        <ele>0</ele>
        <time>2019-05-16T21:42:09Z</time>
      </trkpt>
      <trkpt lat="51.236005428934" lon="4.480549255045">
        <ele>0</ele>
        <time>2019-05-16T21:42:16Z</time>
      </trkpt>
      <trkpt lat="51.23599067679" lon="4.48083717331">
        <ele>0</ele>
        <time>2019-05-16T21:42:23Z</time>
      </trkpt>
      <trkpt lat="51.235965111995" lon="4.481377219127">
        <ele>0</ele>
        <time>2019-05-16T21:42:36Z</time>
      </trkpt>
      <trkpt lat="51.235953125878" lon="4.481696569517">
        <ele>0</ele>
        <time>2019-05-16T21:42:44Z</time>
      </trkpt>
      <trkpt lat="51.235953544973" lon="4.481992115311">
        <ele>0</ele>
        <time>2019-05-16T21:42:51Z</time>
      </trkpt>
      <trkpt lat="51.235954131706" lon="4.482318590316">
        <ele>0</ele>
        <time>2019-05-16T21:42:59Z</time>
      </trkpt>
      <trkpt lat="51.235960753407" lon="4.482620254897">
        <ele>0</ele>
        <time>2019-05-16T21:43:06Z</time>
      </trkpt>
      <trkpt lat="51.235952203869" lon="4.482938850916">
        <ele>0</ele>
        <time>2019-05-16T21:43:13Z</time>
      </trkpt>
      <trkpt lat="51.235943570512" lon="4.48326624793">
        <ele>0</ele>
        <time>2019-05-16T21:43:21Z</time>
      </trkpt>
      <trkpt lat="51.235946671815" lon="4.483566571407">
        <ele>0</ele>
        <time>2019-05-16T21:43:28Z</time>
      </trkpt>
      <trkpt lat="51.235977098112" lon="4.483856585147">
        <ele>0</ele>
        <time>2019-05-16T21:43:35Z</time>
      </trkpt>
      <trkpt lat="51.23597726575" lon="4.484186161455">
        <ele>0</ele>
        <time>2019-05-16T21:43:42Z</time>
      </trkpt>
      <trkpt lat="51.236019929621" lon="4.48447827067">
        <ele>0</ele>
        <time>2019-05-16T21:43:47Z</time>
      </trkpt>
      <trkpt lat="51.235989587143" lon="4.484780605803">
        <ele>5.2</ele>
        <time>2019-05-16T21:43:54Z</time>
      </trkpt>
      <trkpt lat="51.236000148337" lon="4.485084449678">
        <ele>8</ele>
        <time>2019-05-16T21:44:02Z</time>
      </trkpt>
      <trkpt lat="51.236073741419" lon="4.485361052378">
        <ele>8.6</ele>
        <time>2019-05-16T21:44:09Z</time>
      </trkpt>
      <trkpt lat="51.23607281941" lon="4.485662800778">
        <ele>8.6</ele>
        <time>2019-05-16T21:44:16Z</time>
      </trkpt>
      <trkpt lat="51.236068879917" lon="4.485964130083">
        <ele>8.6</ele>
        <time>2019-05-16T21:44:23Z</time>
      </trkpt>
      <trkpt lat="51.236059156913" lon="4.486250791063">
        <ele>8.2</ele>
        <time>2019-05-16T21:44:30Z</time>
      </trkpt>
      <trkpt lat="51.23606276113" lon="4.486542565002">
        <ele>6.8</ele>
        <time>2019-05-16T21:44:37Z</time>
      </trkpt>
      <trkpt lat="51.236075417799" lon="4.486847247067">
        <ele>6.6</ele>
        <time>2019-05-16T21:44:44Z</time>
      </trkpt>
      <trkpt lat="51.236078854378" lon="4.487137176988">
        <ele>6</ele>
        <time>2019-05-16T21:44:51Z</time>
      </trkpt>
      <trkpt lat="51.2360904214" lon="4.487426352538">
        <ele>6.6</ele>
        <time>2019-05-16T21:44:58Z</time>
      </trkpt>
      <trkpt lat="51.236101820784" lon="4.487740254693">
        <ele>7.8</ele>
        <time>2019-05-16T21:45:05Z</time>
      </trkpt>
      <trkpt lat="51.236116992023" lon="4.488042003093">
        <ele>9</ele>
        <time>2019-05-16T21:45:12Z</time>
      </trkpt>
      <trkpt lat="51.23612059624" lon="4.488351714298">
        <ele>10</ele>
        <time>2019-05-16T21:45:19Z</time>
      </trkpt>
      <trkpt lat="51.236138701144" lon="4.488645164617">
        <ele>10</ele>
        <time>2019-05-16T21:45:26Z</time>
      </trkpt>
      <trkpt lat="51.236150687261" lon="4.48895001432">
        <ele>10.8</ele>
        <time>2019-05-16T21:45:33Z</time>
      </trkpt>
      <trkpt lat="51.236161332274" lon="4.489262994466">
        <ele>12</ele>
        <time>2019-05-16T21:45:40Z</time>
      </trkpt>
      <trkpt lat="51.236146663949" lon="4.489577986268">
        <ele>12</ele>
        <time>2019-05-16T21:45:47Z</time>
      </trkpt>
      <trkpt lat="51.236076339808" lon="4.489855930072">
        <ele>12.8</ele>
        <time>2019-05-16T21:45:54Z</time>
      </trkpt>
      <trkpt lat="51.23600827878" lon="4.490114930782">
        <ele>12.6</ele>
        <time>2019-05-16T21:46:01Z</time>
      </trkpt>
      <trkpt lat="51.23604767371" lon="4.490401172667">
        <ele>15.4</ele>
        <time>2019-05-16T21:46:09Z</time>
      </trkpt>
      <trkpt lat="51.236001154165" lon="4.490689845303">
        <ele>19</ele>
        <time>2019-05-16T21:46:16Z</time>
      </trkpt>
      <trkpt lat="51.235933512232" lon="4.490958904293">
        <ele>23.2</ele>
        <time>2019-05-16T21:46:23Z</time>
      </trkpt>
      <trkpt lat="51.235871402353" lon="4.491236261364">
        <ele>25</ele>
        <time>2019-05-16T21:46:30Z</time>
      </trkpt>
      <trkpt lat="51.235809208655" lon="4.491532393891">
        <ele>22.2</ele>
        <time>2019-05-16T21:46:37Z</time>
      </trkpt>
      <trkpt lat="51.235738465419" lon="4.491825760391">
        <ele>19.6</ele>
        <time>2019-05-16T21:46:44Z</time>
      </trkpt>
      <trkpt lat="51.235653472953" lon="4.492093729734">
        <ele>16.6</ele>
        <time>2019-05-16T21:46:51Z</time>
      </trkpt>
      <trkpt lat="51.235517518535" lon="4.492279137362">
        <ele>14.8</ele>
        <time>2019-05-16T21:46:58Z</time>
      </trkpt>
      <trkpt lat="51.235494216853" lon="4.492414756504">
        <ele>14.6</ele>
        <time>2019-05-16T21:47:02Z</time>
      </trkpt>
      <trkpt lat="51.235507208798" lon="4.492524559394">
        <ele>14.4</ele>
        <time>2019-05-16T21:47:05Z</time>
      </trkpt>
      <trkpt lat="51.235442249073" lon="4.492821697749">
        <ele>15</ele>
        <time>2019-05-16T21:47:13Z</time>
      </trkpt>
      <trkpt lat="51.235371002923" lon="4.493097294621">
        <ele>16.4</ele>
        <time>2019-05-16T21:47:20Z</time>
      </trkpt>
      <trkpt lat="51.235295230547" lon="4.493364928688">
        <ele>17</ele>
        <time>2019-05-16T21:47:27Z</time>
      </trkpt>
      <trkpt lat="51.235222643293" lon="4.493641447569">
        <ele>18</ele>
        <time>2019-05-16T21:47:34Z</time>
      </trkpt>
      <trkpt lat="51.235156929197" lon="4.493910925654">
        <ele>17.6</ele>
        <time>2019-05-16T21:47:41Z</time>
      </trkpt>
      <trkpt lat="51.235069673618" lon="4.494184762327">
        <ele>16.2</ele>
        <time>2019-05-16T21:47:48Z</time>
      </trkpt>
      <trkpt lat="51.234961798565" lon="4.494445104141">
        <ele>13.8</ele>
        <time>2019-05-16T21:47:55Z</time>
      </trkpt>
      <trkpt lat="51.234882338153" lon="4.494713324941">
        <ele>13.4</ele>
        <time>2019-05-16T21:48:02Z</time>
      </trkpt>
      <trkpt lat="51.234795920764" lon="4.495101239273">
        <ele>13.2</ele>
        <time>2019-05-16T21:48:12Z</time>
      </trkpt>
      <trkpt lat="51.234719058741" lon="4.495383206389">
        <ele>13.4</ele>
        <time>2019-05-16T21:48:19Z</time>
      </trkpt>
      <trkpt lat="51.234652506455" lon="4.495661988383">
        <ele>15.6</ele>
        <time>2019-05-16T21:48:26Z</time>
      </trkpt>
      <trkpt lat="51.234564245048" lon="4.495957869453">
        <ele>17.8</ele>
        <time>2019-05-16T21:48:33Z</time>
      </trkpt>
      <trkpt lat="51.234495429649" lon="4.49623472361">
        <ele>19.4</ele>
        <time>2019-05-16T21:48:40Z</time>
      </trkpt>
      <trkpt lat="51.234416304513" lon="4.496522893332">
        <ele>20.4</ele>
        <time>2019-05-16T21:48:47Z</time>
      </trkpt>
      <trkpt lat="51.234335000083" lon="4.496795807996">
        <ele>18.4</ele>
        <time>2019-05-16T21:48:54Z</time>
      </trkpt>
      <trkpt lat="51.23424221245" lon="4.497069309393">
        <ele>17.2</ele>
        <time>2019-05-16T21:49:02Z</time>
      </trkpt>
      <trkpt lat="51.234144898591" lon="4.497347588473">
        <ele>18</ele>
        <time>2019-05-16T21:49:09Z</time>
      </trkpt>
      <trkpt lat="51.234062253057" lon="4.497622095698">
        <ele>19.4</ele>
        <time>2019-05-16T21:49:17Z</time>
      </trkpt>
      <trkpt lat="51.233969633062" lon="4.497911690343">
        <ele>18.4</ele>
        <time>2019-05-16T21:49:25Z</time>
      </trkpt>
      <trkpt lat="51.233892100487" lon="4.498170858691">
        <ele>19.4</ele>
        <time>2019-05-16T21:49:32Z</time>
      </trkpt>
      <trkpt lat="51.233805934555" lon="4.498436564921">
        <ele>20.6</ele>
        <time>2019-05-16T21:49:39Z</time>
      </trkpt>
      <trkpt lat="51.233694455285" lon="4.498680897306">
        <ele>20.8</ele>
        <time>2019-05-16T21:49:46Z</time>
      </trkpt>
      <trkpt lat="51.233582640739" lon="4.498908214434">
        <ele>19.8</ele>
        <time>2019-05-16T21:49:53Z</time>
      </trkpt>
      <trkpt lat="51.233448362701" lon="4.499119522133">
        <ele>19</ele>
        <time>2019-05-16T21:50:00Z</time>
      </trkpt>
      <trkpt lat="51.23331517431" lon="4.499340804293">
        <ele>19.2</ele>
        <time>2019-05-16T21:50:07Z</time>
      </trkpt>
      <trkpt lat="51.233178716978" lon="4.499580526633">
        <ele>18</ele>
        <time>2019-05-16T21:50:15Z</time>
      </trkpt>
      <trkpt lat="51.233046534415" lon="4.499809436322">
        <ele>18.2</ele>
        <time>2019-05-16T21:50:23Z</time>
      </trkpt>
      <trkpt lat="51.232921644105" lon="4.500049242481">
        <ele>18.4</ele>
        <time>2019-05-16T21:50:31Z</time>
      </trkpt>
      <trkpt lat="51.232805135695" lon="4.500271530469">
        <ele>18</ele>
        <time>2019-05-16T21:50:38Z</time>
      </trkpt>
      <trkpt lat="51.232674545693" lon="4.50049691976">
        <ele>18.6</ele>
        <time>2019-05-16T21:50:45Z</time>
      </trkpt>
      <trkpt lat="51.232562228233" lon="4.500733540797">
        <ele>19.8</ele>
        <time>2019-05-16T21:50:52Z</time>
      </trkpt>
      <trkpt lat="51.232439349579" lon="4.500984494883">
        <ele>19.2</ele>
        <time>2019-05-16T21:51:00Z</time>
      </trkpt>
      <trkpt lat="51.232320494237" lon="4.50121357221">
        <ele>18</ele>
        <time>2019-05-16T21:51:07Z</time>
      </trkpt>
      <trkpt lat="51.232205746026" lon="4.501449522695">
        <ele>18.6</ele>
        <time>2019-05-16T21:51:14Z</time>
      </trkpt>
      <trkpt lat="51.232086471589" lon="4.501668960837">
        <ele>16.2</ele>
        <time>2019-05-16T21:51:21Z</time>
      </trkpt>
      <trkpt lat="51.231957557967" lon="4.501904324589">
        <ele>14</ele>
        <time>2019-05-16T21:51:28Z</time>
      </trkpt>
      <trkpt lat="51.231802492817" lon="4.502074896254">
        <ele>13</ele>
        <time>2019-05-16T21:51:35Z</time>
      </trkpt>
      <trkpt lat="51.231697719067" lon="4.502332472041">
        <ele>15.2</ele>
        <time>2019-05-16T21:51:43Z</time>
      </trkpt>
      <trkpt lat="51.231581713571" lon="4.502552748373">
        <ele>14.6</ele>
        <time>2019-05-16T21:51:50Z</time>
      </trkpt>
      <trkpt lat="51.231524381375" lon="4.502831698005">
        <ele>14.6</ele>
        <time>2019-05-16T21:51:57Z</time>
      </trkpt>
      <trkpt lat="51.23148289097" lon="4.503134536052">
        <ele>14</ele>
        <time>2019-05-16T21:52:04Z</time>
      </trkpt>
      <trkpt lat="51.231441316746" lon="4.503446175094">
        <ele>13</ele>
        <time>2019-05-16T21:52:12Z</time>
      </trkpt>
      <trkpt lat="51.231354983176" lon="4.503711294591">
        <ele>13.2</ele>
        <time>2019-05-16T21:52:19Z</time>
      </trkpt>
      <trkpt lat="51.231257166403" lon="4.503985382721">
        <ele>15.2</ele>
        <time>2019-05-16T21:52:27Z</time>
      </trkpt>
      <trkpt lat="51.231206875003" lon="4.504268690941">
        <ele>15.8</ele>
        <time>2019-05-16T21:52:34Z</time>
      </trkpt>
      <trkpt lat="51.231165300779" lon="4.504563398545">
        <ele>15.6</ele>
        <time>2019-05-16T21:52:41Z</time>
      </trkpt>
      <trkpt lat="51.231109644963" lon="4.50484880224">
        <ele>16</ele>
        <time>2019-05-16T21:52:48Z</time>
      </trkpt>
      <trkpt lat="51.231046613075" lon="4.505129260614">
        <ele>15.8</ele>
        <time>2019-05-16T21:52:55Z</time>
      </trkpt>
      <trkpt lat="51.230982826816" lon="4.505423632942">
        <ele>17.2</ele>
        <time>2019-05-16T21:53:02Z</time>
      </trkpt>
      <trkpt lat="51.23090286349" lon="4.5057071088">
        <ele>16.8</ele>
        <time>2019-05-16T21:53:09Z</time>
      </trkpt>
      <trkpt lat="51.230815188816" lon="4.505967199157">
        <ele>20.8</ele>
        <time>2019-05-16T21:53:16Z</time>
      </trkpt>
      <trkpt lat="51.230747882159" lon="4.506251177929">
        <ele>22.4</ele>
        <time>2019-05-16T21:53:23Z</time>
      </trkpt>
      <trkpt lat="51.230679988769" lon="4.506518811996">
        <ele>20.2</ele>
        <time>2019-05-16T21:53:30Z</time>
      </trkpt>
      <trkpt lat="51.230610418999" lon="4.506796839619">
        <ele>19.2</ele>
        <time>2019-05-16T21:53:37Z</time>
      </trkpt>
      <trkpt lat="51.230495335512" lon="4.507340657291">
        <ele>18</ele>
        <time>2019-05-16T21:53:50Z</time>
      </trkpt>
      <trkpt lat="51.230436662212" lon="4.507621618579">
        <ele>17.8</ele>
        <time>2019-05-16T21:53:57Z</time>
      </trkpt>
      <trkpt lat="51.230426603932" lon="4.50769613367">
        <ele>17.8</ele>
        <time>2019-05-16T21:53:58Z</time>
      </trkpt>
      <trkpt lat="51.230386286993" lon="4.507990757455">
        <ele>19.4</ele>
        <time>2019-05-16T21:54:06Z</time>
      </trkpt>
      <trkpt lat="51.230300121061" lon="4.508251602183">
        <ele>19.2</ele>
        <time>2019-05-16T21:54:13Z</time>
      </trkpt>
      <trkpt lat="51.230242872684" lon="4.508525774132">
        <ele>16.8</ele>
        <time>2019-05-16T21:54:20Z</time>
      </trkpt>
      <trkpt lat="51.230185121393" lon="4.508797766787">
        <ele>16.2</ele>
        <time>2019-05-16T21:54:27Z</time>
      </trkpt>
      <trkpt lat="51.230129884672" lon="4.509089959821">
        <ele>16.8</ele>
        <time>2019-05-16T21:54:34Z</time>
      </trkpt>
      <trkpt lat="51.230066601327" lon="4.509383745416">
        <ele>19.2</ele>
        <time>2019-05-16T21:54:41Z</time>
      </trkpt>
      <trkpt lat="51.229999797584" lon="4.509665125799">
        <ele>21</ele>
        <time>2019-05-16T21:54:48Z</time>
      </trkpt>
      <trkpt lat="51.229921929733" lon="4.509956145367">
        <ele>24.8</ele>
        <time>2019-05-16T21:54:56Z</time>
      </trkpt>
      <trkpt lat="51.229871722152" lon="4.510233670076">
        <ele>26</ele>
        <time>2019-05-16T21:55:03Z</time>
      </trkpt>
      <trkpt lat="51.229825705521" lon="4.510515721011">
        <ele>26</ele>
        <time>2019-05-16T21:55:10Z</time>
      </trkpt>
      <trkpt lat="51.229819335277" lon="4.510825851311">
        <ele>24.8</ele>
        <time>2019-05-16T21:55:18Z</time>
      </trkpt>
      <trkpt lat="51.229780862356" lon="4.511114104852">
        <ele>25.4</ele>
        <time>2019-05-16T21:55:25Z</time>
      </trkpt>
      <trkpt lat="51.229682123574" lon="4.511362879644">
        <ele>23.8</ele>
        <time>2019-05-16T21:55:32Z</time>
      </trkpt>
      <trkpt lat="51.229603752809" lon="4.511636632498">
        <ele>21.2</ele>
        <time>2019-05-16T21:55:39Z</time>
      </trkpt>
      <trkpt lat="51.229547174984" lon="4.511924383125">
        <ele>21.6</ele>
        <time>2019-05-16T21:55:46Z</time>
      </trkpt>
      <trkpt lat="51.229478108128" lon="4.512192855382">
        <ele>17.2</ele>
        <time>2019-05-16T21:55:53Z</time>
      </trkpt>
      <trkpt lat="51.229393786214" lon="4.51245202373">
        <ele>16.6</ele>
        <time>2019-05-16T21:56:00Z</time>
      </trkpt>
      <trkpt lat="51.229330502869" lon="4.512744132945">
        <ele>17.4</ele>
        <time>2019-05-16T21:56:07Z</time>
      </trkpt>
      <trkpt lat="51.229264956411" lon="4.5130328894">
        <ele>18</ele>
        <time>2019-05-16T21:56:14Z</time>
      </trkpt>
      <trkpt lat="51.229220699979" lon="4.513311084661">
        <ele>16.6</ele>
        <time>2019-05-16T21:56:21Z</time>
      </trkpt>
      <trkpt lat="51.229147861268" lon="4.513587016809">
        <ele>15.4</ele>
        <time>2019-05-16T21:56:28Z</time>
      </trkpt>
      <trkpt lat="51.229091786357" lon="4.513865044432">
        <ele>17.4</ele>
        <time>2019-05-16T21:56:35Z</time>
      </trkpt>
      <trkpt lat="51.229023054777" lon="4.514169810316">
        <ele>18</ele>
        <time>2019-05-16T21:56:43Z</time>
      </trkpt>
      <trkpt lat="51.228958346509" lon="4.514480611168">
        <ele>15.8</ele>
        <time>2019-05-16T21:56:51Z</time>
      </trkpt>
      <trkpt lat="51.22889456025" lon="4.514768026519">
        <ele>14.2</ele>
        <time>2019-05-16T21:56:58Z</time>
      </trkpt>
      <trkpt lat="51.22885181256" lon="4.515062901761">
        <ele>12.2</ele>
        <time>2019-05-16T21:57:05Z</time>
      </trkpt>
      <trkpt lat="51.228786601378" lon="4.515360375392">
        <ele>14.2</ele>
        <time>2019-05-16T21:57:12Z</time>
      </trkpt>
      <trkpt lat="51.228727508983" lon="4.515638486834">
        <ele>13</ele>
        <time>2019-05-16T21:57:19Z</time>
      </trkpt>
      <trkpt lat="51.228650479322" lon="4.515909138385">
        <ele>12.2</ele>
        <time>2019-05-16T21:57:26Z</time>
      </trkpt>
      <trkpt lat="51.228598260085" lon="4.516208958948">
        <ele>14.4</ele>
        <time>2019-05-16T21:57:34Z</time>
      </trkpt>
      <trkpt lat="51.228562972286" lon="4.516523447836">
        <ele>16</ele>
        <time>2019-05-16T21:57:42Z</time>
      </trkpt>
      <trkpt lat="51.228501952054" lon="4.516801307821">
        <ele>14</ele>
        <time>2019-05-16T21:57:49Z</time>
      </trkpt>
      <trkpt lat="51.228402207444" lon="4.51705536321">
        <ele>11.8</ele>
        <time>2019-05-16T21:57:56Z</time>
      </trkpt>
      <trkpt lat="51.228277736229" lon="4.517282261243">
        <ele>13.8</ele>
        <time>2019-05-16T21:58:02Z</time>
      </trkpt>
      <trkpt lat="51.228160557267" lon="4.517539585573">
        <ele>14.4</ele>
        <time>2019-05-16T21:58:09Z</time>
      </trkpt>
      <trkpt lat="51.228058633363" lon="4.517787270718">
        <ele>14.6</ele>
        <time>2019-05-16T21:58:16Z</time>
      </trkpt>
      <trkpt lat="51.227954278708" lon="4.518063370504">
        <ele>12</ele>
        <time>2019-05-16T21:58:24Z</time>
      </trkpt>
      <trkpt lat="51.227847074207" lon="4.518338715919">
        <ele>11.2</ele>
        <time>2019-05-16T21:58:32Z</time>
      </trkpt>
      <trkpt lat="51.227743390104" lon="4.518615737714">
        <ele>11</ele>
        <time>2019-05-16T21:58:40Z</time>
      </trkpt>
      <trkpt lat="51.227637526707" lon="4.518887227455">
        <ele>12</ele>
        <time>2019-05-16T21:58:48Z</time>
      </trkpt>
      <trkpt lat="51.227516492071" lon="4.519138684455">
        <ele>13.8</ele>
        <time>2019-05-16T21:58:56Z</time>
      </trkpt>
      <trkpt lat="51.227315997023" lon="4.519197357755">
        <ele>14.6</ele>
        <time>2019-05-16T21:59:05Z</time>
      </trkpt>
      <trkpt lat="51.227212480558" lon="4.519200039963">
        <ele>14.4</ele>
        <time>2019-05-16T21:59:09Z</time>
      </trkpt>
      <trkpt lat="51.227171073972" lon="4.519155951169">
        <ele>14.8</ele>
        <time>2019-05-16T21:59:11Z</time>
      </trkpt>
      <trkpt lat="51.227093709035" lon="4.518871301845">
        <ele>14</ele>
        <time>2019-05-16T21:59:19Z</time>
      </trkpt>
      <trkpt lat="51.226939733532" lon="4.518288173062">
        <ele>21</ele>
        <time>2019-05-16T21:59:34Z</time>
      </trkpt>
      <trkpt lat="51.226879635309" lon="4.518006289765">
        <ele>22.2</ele>
        <time>2019-05-16T21:59:41Z</time>
      </trkpt>
      <trkpt lat="51.226825991149" lon="4.517730357617">
        <ele>22</ele>
        <time>2019-05-16T21:59:48Z</time>
      </trkpt>
      <trkpt lat="51.226781147984" lon="4.517451407985">
        <ele>23.4</ele>
        <time>2019-05-16T21:59:55Z</time>
      </trkpt>
      <trkpt lat="51.226729431661" lon="4.517142954065">
        <ele>25.6</ele>
        <time>2019-05-16T22:00:02Z</time>
      </trkpt>
      <trkpt lat="51.226693138034" lon="4.516830393014">
        <ele>24.2</ele>
        <time>2019-05-16T22:00:10Z</time>
      </trkpt>
      <trkpt lat="51.226629267956" lon="4.516548593536">
        <ele>21.2</ele>
        <time>2019-05-16T22:00:16Z</time>
      </trkpt>
      <trkpt lat="51.226568247724" lon="4.516236367761">
        <ele>17.4</ele>
        <time>2019-05-16T22:00:23Z</time>
      </trkpt>
      <trkpt lat="51.226498845592" lon="4.515947862763">
        <ele>17.2</ele>
        <time>2019-05-16T22:00:30Z</time>
      </trkpt>
      <trkpt lat="51.226435981342" lon="4.515663213439">
        <ele>19.4</ele>
        <time>2019-05-16T22:00:37Z</time>
      </trkpt>
      <trkpt lat="51.226373368549" lon="4.515366577998">
        <ele>20</ele>
        <time>2019-05-16T22:00:44Z</time>
      </trkpt>
      <trkpt lat="51.22631461143" lon="4.515092992782">
        <ele>19.2</ele>
        <time>2019-05-16T22:00:50Z</time>
      </trkpt>
      <trkpt lat="51.226252501551" lon="4.514813540236">
        <ele>19.6</ele>
        <time>2019-05-16T22:00:56Z</time>
      </trkpt>
      <trkpt lat="51.226182261229" lon="4.514504834859">
        <ele>22</ele>
        <time>2019-05-16T22:01:03Z</time>
      </trkpt>
      <trkpt lat="51.226124509938" lon="4.514217503327">
        <ele>25.8</ele>
        <time>2019-05-16T22:01:10Z</time>
      </trkpt>
      <trkpt lat="51.226072793615" lon="4.513901086602">
        <ele>25.6</ele>
        <time>2019-05-16T22:01:18Z</time>
      </trkpt>
      <trkpt lat="51.22607321271" lon="4.51361375507">
        <ele>22.2</ele>
        <time>2019-05-16T22:01:24Z</time>
      </trkpt>
      <trkpt lat="51.226099950971" lon="4.513525242206">
        <ele>20.2</ele>
        <time>2019-05-16T22:01:26Z</time>
      </trkpt>
      <trkpt lat="51.226071368692" lon="4.513238748864">
        <ele>15.6</ele>
        <time>2019-05-16T22:01:32Z</time>
      </trkpt>
      <trkpt lat="51.226000541637" lon="4.512957871395">
        <ele>13.8</ele>
        <time>2019-05-16T22:01:39Z</time>
      </trkpt>
      <trkpt lat="51.225961565802" lon="4.512640197385">
        <ele>14.8</ele>
        <time>2019-05-16T22:01:46Z</time>
      </trkpt>
      <trkpt lat="51.225912699325" lon="4.512335850596">
        <ele>17.4</ele>
        <time>2019-05-16T22:01:54Z</time>
      </trkpt>
      <trkpt lat="51.225849499799" lon="4.512025971753">
        <ele>18.4</ele>
        <time>2019-05-16T22:02:02Z</time>
      </trkpt>
      <trkpt lat="51.225789485395" lon="4.511740651877">
        <ele>21.6</ele>
        <time>2019-05-16T22:02:10Z</time>
      </trkpt>
      <trkpt lat="51.225736008873" lon="4.511432533233">
        <ele>24</ele>
        <time>2019-05-16T22:02:18Z</time>
      </trkpt>
      <trkpt lat="51.225659063031" lon="4.511128605539">
        <ele>23</ele>
        <time>2019-05-16T22:02:26Z</time>
      </trkpt>
      <trkpt lat="51.225612962581" lon="4.510815541574">
        <ele>17</ele>
        <time>2019-05-16T22:02:33Z</time>
      </trkpt>
      <trkpt lat="51.225576836592" lon="4.510513038803">
        <ele>15.2</ele>
        <time>2019-05-16T22:02:40Z</time>
      </trkpt>
      <trkpt lat="51.225519336758" lon="4.510194694241">
        <ele>13.8</ele>
        <time>2019-05-16T22:02:47Z</time>
      </trkpt>
      <trkpt lat="51.225465105865" lon="4.509886910873">
        <ele>13.8</ele>
        <time>2019-05-16T22:02:54Z</time>
      </trkpt>
      <trkpt lat="51.225403163624" lon="4.509591867993">
        <ele>16.6</ele>
        <time>2019-05-16T22:03:01Z</time>
      </trkpt>
      <trkpt lat="51.225345244695" lon="4.509284838996">
        <ele>15.4</ele>
        <time>2019-05-16T22:03:08Z</time>
      </trkpt>
      <trkpt lat="51.225290427069" lon="4.508979151103">
        <ele>11.6</ele>
        <time>2019-05-16T22:03:15Z</time>
      </trkpt>
      <trkpt lat="51.225230328846" lon="4.508675558685">
        <ele>11.6</ele>
        <time>2019-05-16T22:03:22Z</time>
      </trkpt>
      <trkpt lat="51.2251688057" lon="4.508389400619">
        <ele>12</ele>
        <time>2019-05-16T22:03:29Z</time>
      </trkpt>
      <trkpt lat="51.2251017505" lon="4.508089663875">
        <ele>15</ele>
        <time>2019-05-16T22:03:37Z</time>
      </trkpt>
      <trkpt lat="51.225032767463" lon="4.507781964326">
        <ele>15.4</ele>
        <time>2019-05-16T22:03:45Z</time>
      </trkpt>
      <trkpt lat="51.224977614561" lon="4.507502930875">
        <ele>16.4</ele>
        <time>2019-05-16T22:03:52Z</time>
      </trkpt>
      <trkpt lat="51.224924976229" lon="4.507207049805">
        <ele>17</ele>
        <time>2019-05-16T22:03:59Z</time>
      </trkpt>
      <trkpt lat="51.224867979309" lon="4.506924747413">
        <ele>17.4</ele>
        <time>2019-05-16T22:04:06Z</time>
      </trkpt>
      <trkpt lat="51.224798409539" lon="4.506628447248">
        <ele>14.8</ele>
        <time>2019-05-16T22:04:13Z</time>
      </trkpt>
      <trkpt lat="51.224728336855" lon="4.5063357513">
        <ele>13.8</ele>
        <time>2019-05-16T22:04:20Z</time>
      </trkpt>
      <trkpt lat="51.224676955808" lon="4.506040205506">
        <ele>13.8</ele>
        <time>2019-05-16T22:04:27Z</time>
      </trkpt>
      <trkpt lat="51.224633118471" lon="4.505736361631">
        <ele>11.8</ele>
        <time>2019-05-16T22:04:34Z</time>
      </trkpt>
      <trkpt lat="51.224587437116" lon="4.505438971819">
        <ele>8.6</ele>
        <time>2019-05-16T22:04:41Z</time>
      </trkpt>
      <trkpt lat="51.224539911743" lon="4.505151640287">
        <ele>7.8</ele>
        <time>2019-05-16T22:04:48Z</time>
      </trkpt>
      <trkpt lat="51.224461457159" lon="4.504634560876">
        <ele>4.6</ele>
        <time>2019-05-16T22:05:00Z</time>
      </trkpt>
      <trkpt lat="51.224411333397" lon="4.504343289851">
        <ele>3</ele>
        <time>2019-05-16T22:05:07Z</time>
      </trkpt>
      <trkpt lat="51.224358443608" lon="4.504061909468">
        <ele>1.2</ele>
        <time>2019-05-16T22:05:14Z</time>
      </trkpt>
      <trkpt lat="51.224304967086" lon="4.503783378931">
        <ele>1</ele>
        <time>2019-05-16T22:05:21Z</time>
      </trkpt>
      <trkpt lat="51.224235229678" lon="4.503486156757">
        <ele>1.4</ele>
        <time>2019-05-16T22:05:28Z</time>
      </trkpt>
      <trkpt lat="51.22416381589" lon="4.503191449153">
        <ele>2.8</ele>
        <time>2019-05-16T22:05:35Z</time>
      </trkpt>
      <trkpt lat="51.224097431242" lon="4.502892885875">
        <ele>4.2</ele>
        <time>2019-05-16T22:05:42Z</time>
      </trkpt>
      <trkpt lat="51.224043032711" lon="4.502603794144">
        <ele>4.8</ele>
        <time>2019-05-16T22:05:49Z</time>
      </trkpt>
      <trkpt lat="51.223979917004" lon="4.502303051572">
        <ele>4.6</ele>
        <time>2019-05-16T22:05:56Z</time>
      </trkpt>
      <trkpt lat="51.223921830437" lon="4.502013289289">
        <ele>4.6</ele>
        <time>2019-05-16T22:06:03Z</time>
      </trkpt>
      <trkpt lat="51.223867012811" lon="4.501736435132">
        <ele>3.4</ele>
        <time>2019-05-16T22:06:10Z</time>
      </trkpt>
      <trkpt lat="51.223812949556" lon="4.501449774152">
        <ele>3.2</ele>
        <time>2019-05-16T22:06:17Z</time>
      </trkpt>
      <trkpt lat="51.223759975948" lon="4.501158167851">
        <ele>4</ele>
        <time>2019-05-16T22:06:24Z</time>
      </trkpt>
      <trkpt lat="51.223697195517" lon="4.500871506871">
        <ele>6.4</ele>
        <time>2019-05-16T22:06:31Z</time>
      </trkpt>
      <trkpt lat="51.223629469765" lon="4.500573614145">
        <ele>6.8</ele>
        <time>2019-05-16T22:06:38Z</time>
      </trkpt>
      <trkpt lat="51.223564593859" lon="4.500284270957">
        <ele>7.2</ele>
        <time>2019-05-16T22:06:45Z</time>
      </trkpt>
      <trkpt lat="51.223508435129" lon="4.499990150086">
        <ele>7.6</ele>
        <time>2019-05-16T22:06:52Z</time>
      </trkpt>
      <trkpt lat="51.223455293883" lon="4.499707680056">
        <ele>7</ele>
        <time>2019-05-16T22:06:59Z</time>
      </trkpt>
      <trkpt lat="51.223419251713" lon="4.499419091239">
        <ele>6</ele>
        <time>2019-05-16T22:07:06Z</time>
      </trkpt>
      <trkpt lat="51.223376252566" lon="4.499108206568">
        <ele>6.2</ele>
        <time>2019-05-16T22:07:13Z</time>
      </trkpt>
      <trkpt lat="51.2233164058" lon="4.498809894747">
        <ele>5.8</ele>
        <time>2019-05-16T22:07:20Z</time>
      </trkpt>
      <trkpt lat="51.22323677775" lon="4.498510912374">
        <ele>6.4</ele>
        <time>2019-05-16T22:07:27Z</time>
      </trkpt>
      <trkpt lat="51.223183804142" lon="4.498226095412">
        <ele>7.4</ele>
        <time>2019-05-16T22:07:34Z</time>
      </trkpt>
      <trkpt lat="51.223190342024" lon="4.497944463572">
        <ele>7.4</ele>
        <time>2019-05-16T22:07:41Z</time>
      </trkpt>
      <trkpt lat="51.223322189311" lon="4.497757966297">
        <ele>6.2</ele>
        <time>2019-05-16T22:07:47Z</time>
      </trkpt>
      <trkpt lat="51.223461077394" lon="4.497578509818">
        <ele>5.4</ele>
        <time>2019-05-16T22:07:53Z</time>
      </trkpt>
      <trkpt lat="51.223449007458" lon="4.497520758527">
        <ele>5</ele>
        <time>2019-05-16T22:07:55Z</time>
      </trkpt>
      <trkpt lat="51.223251529894" lon="4.497542383829">
        <ele>3.2</ele>
        <time>2019-05-16T22:08:03Z</time>
      </trkpt>
      <trkpt lat="51.223071989596" lon="4.497443225952">
        <ele>1.8</ele>
        <time>2019-05-16T22:08:10Z</time>
      </trkpt>
      <trkpt lat="51.222970736244" lon="4.497179196102">
        <ele>2</ele>
        <time>2019-05-16T22:08:17Z</time>
      </trkpt>
      <trkpt lat="51.222903848682" lon="4.496894882054">
        <ele>3</ele>
        <time>2019-05-16T22:08:24Z</time>
      </trkpt>
      <trkpt lat="51.222831177609" lon="4.496595396767">
        <ele>3.8</ele>
        <time>2019-05-16T22:08:31Z</time>
      </trkpt>
      <trkpt lat="51.22275398031" lon="4.496314016384">
        <ele>5.2</ele>
        <time>2019-05-16T22:08:38Z</time>
      </trkpt>
      <trkpt lat="51.22269949796" lon="4.496020230789">
        <ele>4.6</ele>
        <time>2019-05-16T22:08:45Z</time>
      </trkpt>
      <trkpt lat="51.222641243755" lon="4.495735246189">
        <ele>4</ele>
        <time>2019-05-16T22:08:52Z</time>
      </trkpt>
      <trkpt lat="51.222586929043" lon="4.495451770331">
        <ele>3.2</ele>
        <time>2019-05-16T22:08:59Z</time>
      </trkpt>
      <trkpt lat="51.222535380358" lon="4.495164103523">
        <ele>1.6</ele>
        <time>2019-05-16T22:09:06Z</time>
      </trkpt>
      <trkpt lat="51.222498080903" lon="4.494879957113">
        <ele>0</ele>
        <time>2019-05-16T22:09:13Z</time>
      </trkpt>
      <trkpt lat="51.222442676544" lon="4.494564630035">
        <ele>0</ele>
        <time>2019-05-16T22:09:20Z</time>
      </trkpt>
      <trkpt lat="51.222378638828" lon="4.494257181943">
        <ele>1</ele>
        <time>2019-05-16T22:09:27Z</time>
      </trkpt>
      <trkpt lat="51.222316193673" lon="4.493958367208">
        <ele>0.8</ele>
        <time>2019-05-16T22:09:34Z</time>
      </trkpt>
      <trkpt lat="51.222267243377" lon="4.493673801703">
        <ele>0.8</ele>
        <time>2019-05-16T22:09:41Z</time>
      </trkpt>
      <trkpt lat="51.222206893697" lon="4.493379680832">
        <ele>1.2</ele>
        <time>2019-05-16T22:09:48Z</time>
      </trkpt>
      <trkpt lat="51.222151740795" lon="4.493088074531">
        <ele>0.8</ele>
        <time>2019-05-16T22:09:55Z</time>
      </trkpt>
      <trkpt lat="51.222095414427" lon="4.49277216072">
        <ele>0</ele>
        <time>2019-05-16T22:10:03Z</time>
      </trkpt>
      <trkpt lat="51.222027940132" lon="4.492493546364">
        <ele>0</ele>
        <time>2019-05-16T22:10:10Z</time>
      </trkpt>
      <trkpt lat="51.221965578796" lon="4.492208477945">
        <ele>0</ele>
        <time>2019-05-16T22:10:17Z</time>
      </trkpt>
      <trkpt lat="51.221870695688" lon="4.49168838105">
        <ele>1.4</ele>
        <time>2019-05-16T22:10:30Z</time>
      </trkpt>
      <trkpt lat="51.221823254134" lon="4.491394511636">
        <ele>0</ele>
        <time>2019-05-16T22:10:37Z</time>
      </trkpt>
      <trkpt lat="51.221763742644" lon="4.491097540919">
        <ele>0</ele>
        <time>2019-05-16T22:10:44Z</time>
      </trkpt>
      <trkpt lat="51.22170372824" lon="4.490810125568">
        <ele>0</ele>
        <time>2019-05-16T22:10:51Z</time>
      </trkpt>
      <trkpt lat="51.221647653329" lon="4.49052162057">
        <ele>0.6</ele>
        <time>2019-05-16T22:10:58Z</time>
      </trkpt>
      <trkpt lat="51.22159392535" lon="4.490225571862">
        <ele>1.4</ele>
        <time>2019-05-16T22:11:05Z</time>
      </trkpt>
      <trkpt lat="51.221531731652" lon="4.489924996928">
        <ele>0.6</ele>
        <time>2019-05-16T22:11:12Z</time>
      </trkpt>
      <trkpt lat="51.221461239873" lon="4.489617800293">
        <ele>2</ele>
        <time>2019-05-16T22:11:20Z</time>
      </trkpt>
      <trkpt lat="51.22140114165" lon="4.489342035783">
        <ele>3.6</ele>
        <time>2019-05-16T22:11:27Z</time>
      </trkpt>
      <trkpt lat="51.221351436983" lon="4.489064678712">
        <ele>4.6</ele>
        <time>2019-05-16T22:11:34Z</time>
      </trkpt>
      <trkpt lat="51.221289494742" lon="4.488793356609">
        <ele>6.4</ele>
        <time>2019-05-16T22:11:41Z</time>
      </trkpt>
      <trkpt lat="51.221229983252" lon="4.488517927375">
        <ele>8</ele>
        <time>2019-05-16T22:11:48Z</time>
      </trkpt>
      <trkpt lat="51.221169549753" lon="4.488238642467">
        <ele>9</ele>
        <time>2019-05-16T22:11:55Z</time>
      </trkpt>
      <trkpt lat="51.221102326915" lon="4.487954496057">
        <ele>8.8</ele>
        <time>2019-05-16T22:12:02Z</time>
      </trkpt>
      <trkpt lat="51.221040384674" lon="4.487683928325">
        <ele>9</ele>
        <time>2019-05-16T22:12:09Z</time>
      </trkpt>
      <trkpt lat="51.22098120846" lon="4.48738930454">
        <ele>10.2</ele>
        <time>2019-05-16T22:12:16Z</time>
      </trkpt>
      <trkpt lat="51.220932425802" lon="4.487112953297">
        <ele>12.2</ele>
        <time>2019-05-16T22:12:23Z</time>
      </trkpt>
      <trkpt lat="51.220867549896" lon="4.486841798832">
        <ele>13</ele>
        <time>2019-05-16T22:12:30Z</time>
      </trkpt>
      <trkpt lat="51.220817929048" lon="4.486548097056">
        <ele>12.4</ele>
        <time>2019-05-16T22:12:37Z</time>
      </trkpt>
      <trkpt lat="51.220771325684" lon="4.486260346429">
        <ele>10.4</ele>
        <time>2019-05-16T22:12:44Z</time>
      </trkpt>
      <trkpt lat="51.220687171408" lon="4.485991119801">
        <ele>6.2</ele>
        <time>2019-05-16T22:12:51Z</time>
      </trkpt>
      <trkpt lat="51.220637299103" lon="4.485683084976">
        <ele>7.6</ele>
        <time>2019-05-16T22:12:59Z</time>
      </trkpt>
      <trkpt lat="51.220576195052" lon="4.48540447062">
        <ele>8.6</ele>
        <time>2019-05-16T22:13:06Z</time>
      </trkpt>
      <trkpt lat="51.220539817606" lon="4.485111020301">
        <ele>8.8</ele>
        <time>2019-05-16T22:13:13Z</time>
      </trkpt>
      <trkpt lat="51.22048416179" lon="4.484836010162">
        <ele>9.4</ele>
        <time>2019-05-16T22:13:20Z</time>
      </trkpt>
      <trkpt lat="51.220425237033" lon="4.484538536531">
        <ele>8.8</ele>
        <time>2019-05-16T22:13:28Z</time>
      </trkpt>
      <trkpt lat="51.220361450774" lon="4.484239051244">
        <ele>7</ele>
        <time>2019-05-16T22:13:36Z</time>
      </trkpt>
      <trkpt lat="51.220294060298" lon="4.483931435514">
        <ele>6.4</ele>
        <time>2019-05-16T22:13:44Z</time>
      </trkpt>
      <trkpt lat="51.220242511613" lon="4.483647792018">
        <ele>6.2</ele>
        <time>2019-05-16T22:13:51Z</time>
      </trkpt>
      <trkpt lat="51.220189035091" lon="4.483331291474">
        <ele>5.4</ele>
        <time>2019-05-16T22:13:59Z</time>
      </trkpt>
      <trkpt lat="51.220128014859" lon="4.48302987835">
        <ele>3.8</ele>
        <time>2019-05-16T22:14:07Z</time>
      </trkpt>
      <trkpt lat="51.220067665179" lon="4.482723687543">
        <ele>5.8</ele>
        <time>2019-05-16T22:14:15Z</time>
      </trkpt>
      <trkpt lat="51.219999017418" lon="4.482454963829">
        <ele>6.2</ele>
        <time>2019-05-16T22:14:22Z</time>
      </trkpt>
      <trkpt lat="51.219936404625" lon="4.482171068876">
        <ele>5.4</ele>
        <time>2019-05-16T22:14:29Z</time>
      </trkpt>
      <trkpt lat="51.21987731223" lon="4.481858004911">
        <ele>6</ele>
        <time>2019-05-16T22:14:37Z</time>
      </trkpt>
      <trkpt lat="51.219814615618" lon="4.481554831588">
        <ele>6.4</ele>
        <time>2019-05-16T22:14:44Z</time>
      </trkpt>
      <trkpt lat="51.219758540707" lon="4.481280240544">
        <ele>5.8</ele>
        <time>2019-05-16T22:14:51Z</time>
      </trkpt>
      <trkpt lat="51.219713110809" lon="4.480994836849">
        <ele>1.8</ele>
        <time>2019-05-16T22:14:58Z</time>
      </trkpt>
      <trkpt lat="51.219834061626" lon="4.480763328771">
        <ele>0</ele>
        <time>2019-05-16T22:15:05Z</time>
      </trkpt>
      <trkpt lat="51.220016535589" lon="4.480699793969">
        <ele>0</ele>
        <time>2019-05-16T22:15:11Z</time>
      </trkpt>
      <trkpt lat="51.220190208557" lon="4.480617483711">
        <ele>0</ele>
        <time>2019-05-16T22:15:17Z</time>
      </trkpt>
      <trkpt lat="51.220358768566" lon="4.480465603683">
        <ele>0</ele>
        <time>2019-05-16T22:15:24Z</time>
      </trkpt>
      <trkpt lat="51.220458345538" lon="4.480191431734">
        <ele>0</ele>
        <time>2019-05-16T22:15:32Z</time>
      </trkpt>
      <trkpt lat="51.220629084841" lon="4.480067882528">
        <ele>0</ele>
        <time>2019-05-16T22:15:39Z</time>
      </trkpt>
      <trkpt lat="51.220809463329" lon="4.479958079638">
        <ele>0</ele>
        <time>2019-05-16T22:15:46Z</time>
      </trkpt>
      <trkpt lat="51.221003671952" lon="4.479857161562">
        <ele>0</ele>
        <time>2019-05-16T22:15:53Z</time>
      </trkpt>
      <trkpt lat="51.221216656031" lon="4.479373190656">
        <ele>0</ele>
        <time>2019-05-16T22:16:06Z</time>
      </trkpt>
      <trkpt lat="51.221247669061" lon="4.479092229368">
        <ele>0</ele>
        <time>2019-05-16T22:16:13Z</time>
      </trkpt>
      <trkpt lat="51.221378259063" lon="4.478889806483">
        <ele>0</ele>
        <time>2019-05-16T22:16:20Z</time>
      </trkpt>
      <trkpt lat="51.221511950368" lon="4.478677409137">
        <ele>0</ele>
        <time>2019-05-16T22:16:27Z</time>
      </trkpt>
      <trkpt lat="51.221640612533" lon="4.47844581724">
        <ele>0</ele>
        <time>2019-05-16T22:16:34Z</time>
      </trkpt>
      <trkpt lat="51.221760892798" lon="4.478211543135">
        <ele>0</ele>
        <time>2019-05-16T22:16:41Z</time>
      </trkpt>
      <trkpt lat="51.221896344302" lon="4.477968551854">
        <ele>0</ele>
        <time>2019-05-16T22:16:48Z</time>
      </trkpt>
      <trkpt lat="51.222033556005" lon="4.477778869457">
        <ele>0</ele>
        <time>2019-05-16T22:16:55Z</time>
      </trkpt>
      <trkpt lat="51.222167917862" lon="4.477567813215">
        <ele>0</ele>
        <time>2019-05-16T22:17:02Z</time>
      </trkpt>
      <trkpt lat="51.222291634706" lon="4.477336640413">
        <ele>0</ele>
        <time>2019-05-16T22:17:09Z</time>
      </trkpt>
      <trkpt lat="51.222421805613" lon="4.477102533946">
        <ele>0.4</ele>
        <time>2019-05-16T22:17:16Z</time>
      </trkpt>
      <trkpt lat="51.222553904357" lon="4.476868259841">
        <ele>1</ele>
        <time>2019-05-16T22:17:23Z</time>
      </trkpt>
      <trkpt lat="51.222700168512" lon="4.476682516937">
        <ele>0</ele>
        <time>2019-05-16T22:17:30Z</time>
      </trkpt>
      <trkpt lat="51.222841571165" lon="4.476473975265">
        <ele>0</ele>
        <time>2019-05-16T22:17:37Z</time>
      </trkpt>
      <trkpt lat="51.222976519755" lon="4.476264763041">
        <ele>0</ele>
        <time>2019-05-16T22:17:44Z</time>
      </trkpt>
      <trkpt lat="51.223138793339" lon="4.476052114238">
        <ele>0</ele>
        <time>2019-05-16T22:17:51Z</time>
      </trkpt>
      <trkpt lat="51.223269634798" lon="4.475824880929">
        <ele>0</ele>
        <time>2019-05-16T22:17:58Z</time>
      </trkpt>
      <trkpt lat="51.223395698574" lon="4.475621787492">
        <ele>0</ele>
        <time>2019-05-16T22:18:05Z</time>
      </trkpt>
      <trkpt lat="51.223531401535" lon="4.475390195595">
        <ele>0</ele>
        <time>2019-05-16T22:18:13Z</time>
      </trkpt>
      <trkpt lat="51.223657046216" lon="4.475172350014">
        <ele>0</ele>
        <time>2019-05-16T22:18:21Z</time>
      </trkpt>
      <trkpt lat="51.223791324254" lon="4.474983673445">
        <ele>0</ele>
        <time>2019-05-16T22:18:28Z</time>
      </trkpt>
      <trkpt lat="51.223949658345" lon="4.474811593038">
        <ele>0</ele>
        <time>2019-05-16T22:18:35Z</time>
      </trkpt>
      <trkpt lat="51.224100448726" lon="4.474640769916">
        <ele>0</ele>
        <time>2019-05-16T22:18:42Z</time>
      </trkpt>
      <trkpt lat="51.224246545243" lon="4.474472461364">
        <ele>0</ele>
        <time>2019-05-16T22:18:49Z</time>
      </trkpt>
      <trkpt lat="51.224394234321" lon="4.474287053736">
        <ele>0</ele>
        <time>2019-05-16T22:18:56Z</time>
      </trkpt>
      <trkpt lat="51.224547455453" lon="4.474117823175">
        <ele>0</ele>
        <time>2019-05-16T22:19:03Z</time>
      </trkpt>
      <trkpt lat="51.224713584711" lon="4.473936522678">
        <ele>0</ele>
        <time>2019-05-16T22:19:11Z</time>
      </trkpt>
      <trkpt lat="51.22484945531" lon="4.473742984607">
        <ele>0</ele>
        <time>2019-05-16T22:19:19Z</time>
      </trkpt>
      <trkpt lat="51.224997898759" lon="4.473571239476">
        <ele>0</ele>
        <time>2019-05-16T22:19:26Z</time>
      </trkpt>
      <trkpt lat="51.225145923113" lon="4.473369990057">
        <ele>0</ele>
        <time>2019-05-16T22:19:34Z</time>
      </trkpt>
      <trkpt lat="51.225277183667" lon="4.473159520548">
        <ele>0</ele>
        <time>2019-05-16T22:19:42Z</time>
      </trkpt>
      <trkpt lat="51.225444318753" lon="4.473016273877">
        <ele>0</ele>
        <time>2019-05-16T22:19:49Z</time>
      </trkpt>
      <trkpt lat="51.225598629532" lon="4.472854922302">
        <ele>0</ele>
        <time>2019-05-16T22:19:55Z</time>
      </trkpt>
      <trkpt lat="51.225774649432" lon="4.472729026164">
        <ele>0</ele>
        <time>2019-05-16T22:20:01Z</time>
      </trkpt>
      <trkpt lat="51.225945556373" lon="4.47257513448">
        <ele>0</ele>
        <time>2019-05-16T22:20:07Z</time>
      </trkpt>
      <trkpt lat="51.226113613468" lon="4.472432558361">
        <ele>0</ele>
        <time>2019-05-16T22:20:14Z</time>
      </trkpt>
      <trkpt lat="51.226275635595" lon="4.472261902877">
        <ele>0</ele>
        <time>2019-05-16T22:20:21Z</time>
      </trkpt>
      <trkpt lat="51.22643195803" lon="4.47206551496">
        <ele>0</ele>
        <time>2019-05-16T22:20:29Z</time>
      </trkpt>
      <trkpt lat="51.226590543578" lon="4.471879688237">
        <ele>0</ele>
        <time>2019-05-16T22:20:37Z</time>
      </trkpt>
      <trkpt lat="51.226753487714" lon="4.471731747702">
        <ele>0</ele>
        <time>2019-05-16T22:20:44Z</time>
      </trkpt>
      <trkpt lat="51.226903775181" lon="4.471570647584">
        <ele>0</ele>
        <time>2019-05-16T22:20:51Z</time>
      </trkpt>
      <trkpt lat="51.227045932205" lon="4.471386245784">
        <ele>0</ele>
        <time>2019-05-16T22:20:58Z</time>
      </trkpt>
      <trkpt lat="51.227214408395" lon="4.471236042136">
        <ele>0</ele>
        <time>2019-05-16T22:21:05Z</time>
      </trkpt>
      <trkpt lat="51.22736570169" lon="4.471069074688">
        <ele>0</ele>
        <time>2019-05-16T22:21:12Z</time>
      </trkpt>
      <trkpt lat="51.227517246442" lon="4.470869501649">
        <ele>0</ele>
        <time>2019-05-16T22:21:20Z</time>
      </trkpt>
      <trkpt lat="51.227676334904" lon="4.470677975234">
        <ele>0</ele>
        <time>2019-05-16T22:21:28Z</time>
      </trkpt>
      <trkpt lat="51.22782670619" lon="4.470491897054">
        <ele>0</ele>
        <time>2019-05-16T22:21:35Z</time>
      </trkpt>
      <trkpt lat="51.227999205692" lon="4.470311099471">
        <ele>0</ele>
        <time>2019-05-16T22:21:43Z</time>
      </trkpt>
      <trkpt lat="51.228145637485" lon="4.470133822286">
        <ele>0</ele>
        <time>2019-05-16T22:21:50Z</time>
      </trkpt>
      <trkpt lat="51.228305647956" lon="4.469971800159">
        <ele>0</ele>
        <time>2019-05-16T22:21:57Z</time>
      </trkpt>
      <trkpt lat="51.228491809955" lon="4.469823021434">
        <ele>0</ele>
        <time>2019-05-16T22:22:04Z</time>
      </trkpt>
      <trkpt lat="51.228567163236" lon="4.469707351214">
        <ele>0</ele>
        <time>2019-05-16T22:22:08Z</time>
      </trkpt>
      <trkpt lat="51.228489211566" lon="4.469429910324">
        <ele>0</ele>
        <time>2019-05-16T22:22:15Z</time>
      </trkpt>
      <trkpt lat="51.22837572064" lon="4.469178118048">
        <ele>0</ele>
        <time>2019-05-16T22:22:22Z</time>
      </trkpt>
      <trkpt lat="51.228275640754" lon="4.468913333827">
        <ele>0</ele>
        <time>2019-05-16T22:22:29Z</time>
      </trkpt>
      <trkpt lat="51.22817874599" lon="4.468642766095">
        <ele>0.6</ele>
        <time>2019-05-16T22:22:36Z</time>
      </trkpt>
      <trkpt lat="51.228094004981" lon="4.468364487015">
        <ele>1.2</ele>
        <time>2019-05-16T22:22:43Z</time>
      </trkpt>
      <trkpt lat="51.228008174325" lon="4.468084447736">
        <ele>3.4</ele>
        <time>2019-05-16T22:22:51Z</time>
      </trkpt>
      <trkpt lat="51.227930557931" lon="4.46778990777">
        <ele>3.2</ele>
        <time>2019-05-16T22:23:00Z</time>
      </trkpt>
      <trkpt lat="51.227870878803" lon="4.467516490192">
        <ele>0.2</ele>
        <time>2019-05-16T22:23:08Z</time>
      </trkpt>
      <trkpt lat="51.227813546607" lon="4.467237624379">
        <ele>0</ele>
        <time>2019-05-16T22:23:16Z</time>
      </trkpt>
      <trkpt lat="51.227753532203" lon="4.466961943688">
        <ele>0</ele>
        <time>2019-05-16T22:23:23Z</time>
      </trkpt>
      <trkpt lat="51.227859227962" lon="4.466698165295">
        <ele>0</ele>
        <time>2019-05-16T22:23:31Z</time>
      </trkpt>
      <trkpt lat="51.227973808535" lon="4.46646472938">
        <ele>0</ele>
        <time>2019-05-16T22:23:38Z</time>
      </trkpt>
      <trkpt lat="51.228098866483" lon="4.466252583491">
        <ele>0</ele>
        <time>2019-05-16T22:23:45Z</time>
      </trkpt>
      <trkpt lat="51.228263654637" lon="4.466070444804">
        <ele>0</ele>
        <time>2019-05-16T22:23:53Z</time>
      </trkpt>
      <trkpt lat="51.228417211045" lon="4.465894676361">
        <ele>0</ele>
        <time>2019-05-16T22:24:00Z</time>
      </trkpt>
      <trkpt lat="51.228560709173" lon="4.465705496878">
        <ele>0</ele>
        <time>2019-05-16T22:24:07Z</time>
      </trkpt>
      <trkpt lat="51.228661459611" lon="4.465442389037">
        <ele>0</ele>
        <time>2019-05-16T22:24:15Z</time>
      </trkpt>
      <trkpt lat="51.228653580625" lon="4.465155979514">
        <ele>0</ele>
        <time>2019-05-16T22:24:22Z</time>
      </trkpt>
      <trkpt lat="51.228655173186" lon="4.464848363784">
        <ele>0</ele>
        <time>2019-05-16T22:24:30Z</time>
      </trkpt>
      <trkpt lat="51.228639666671" lon="4.464536640923">
        <ele>0</ele>
        <time>2019-05-16T22:24:38Z</time>
      </trkpt>
      <trkpt lat="51.228733963046" lon="4.46429130271">
        <ele>0</ele>
        <time>2019-05-16T22:24:45Z</time>
      </trkpt>
      <trkpt lat="51.228909228575" lon="4.464208154262">
        <ele>0</ele>
        <time>2019-05-16T22:24:52Z</time>
      </trkpt>
      <trkpt lat="51.229095474393" lon="4.464167082952">
        <ele>0</ele>
        <time>2019-05-16T22:25:00Z</time>
      </trkpt>
      <trkpt lat="51.229125565414" lon="4.464137243388">
        <ele>0</ele>
        <time>2019-05-16T22:25:02Z</time>
      </trkpt>
      <trkpt lat="51.229126235966" lon="4.463825520527">
        <ele>0</ele>
        <time>2019-05-16T22:25:10Z</time>
      </trkpt>
      <trkpt lat="51.229107711967" lon="4.463529639457">
        <ele>0</ele>
        <time>2019-05-16T22:25:17Z</time>
      </trkpt>
      <trkpt lat="51.229067897942" lon="4.463227220505">
        <ele>0</ele>
        <time>2019-05-16T22:25:24Z</time>
      </trkpt>
      <trkpt lat="51.229036968731" lon="4.462939637516">
        <ele>0</ele>
        <time>2019-05-16T22:25:31Z</time>
      </trkpt>
      <trkpt lat="51.229038226016" lon="4.462631183596">
        <ele>0</ele>
        <time>2019-05-16T22:25:39Z</time>
      </trkpt>
      <trkpt lat="51.229024814976" lon="4.462494893902">
        <ele>0</ele>
        <time>2019-05-16T22:25:43Z</time>
      </trkpt>
      <trkpt lat="51.229052726703" lon="4.462438651353">
        <ele>0</ele>
        <time>2019-05-16T22:25:45Z</time>
      </trkpt>
      <trkpt lat="51.229152890408" lon="4.462358185113">
        <ele>0</ele>
        <time>2019-05-16T22:25:50Z</time>
      </trkpt>
      <trkpt lat="51.229155069702" lon="4.462031207194">
        <ele>0</ele>
        <time>2019-05-16T22:25:58Z</time>
      </trkpt>
      <trkpt lat="51.229174264253" lon="4.461885529772">
        <ele>0</ele>
        <time>2019-05-16T22:26:02Z</time>
      </trkpt>
      <trkpt lat="51.22921474883" lon="4.461855019656">
        <ele>0</ele>
        <time>2019-05-16T22:26:04Z</time>
      </trkpt>
      <trkpt lat="51.229412896946" lon="4.461855774027">
        <ele>0</ele>
        <time>2019-05-16T22:26:12Z</time>
      </trkpt>
      <trkpt lat="51.229618337315" lon="4.461850744887">
        <ele>0</ele>
        <time>2019-05-16T22:26:20Z</time>
      </trkpt>
      <trkpt lat="51.229804247857" lon="4.461787377723">
        <ele>0</ele>
        <time>2019-05-16T22:26:26Z</time>
      </trkpt>
      <trkpt lat="51.229877338025" lon="4.461684867086">
        <ele>0</ele>
        <time>2019-05-16T22:26:30Z</time>
      </trkpt>
      <trkpt lat="51.229820592562" lon="4.461401055952">
        <ele>0</ele>
        <time>2019-05-16T22:26:37Z</time>
      </trkpt>
      <trkpt lat="51.229727302015" lon="4.461117999189">
        <ele>0</ele>
        <time>2019-05-16T22:26:44Z</time>
      </trkpt>
      <trkpt lat="51.229722189056" lon="4.460961509116">
        <ele>0</ele>
        <time>2019-05-16T22:26:48Z</time>
      </trkpt>
      <trkpt lat="51.229885133192" lon="4.460842821412">
        <ele>1</ele>
        <time>2019-05-16T22:26:55Z</time>
      </trkpt>
      <trkpt lat="51.230077330159" lon="4.460775347117">
        <ele>2.4</ele>
        <time>2019-05-16T22:27:02Z</time>
      </trkpt>
      <trkpt lat="51.230261145226" lon="4.460728408477">
        <ele>3.4</ele>
        <time>2019-05-16T22:27:09Z</time>
      </trkpt>
      <trkpt lat="51.230348316986" lon="4.460675853964">
        <ele>4</ele>
        <time>2019-05-16T22:27:13Z</time>
      </trkpt>
      <trkpt lat="51.230529282207" lon="4.460658838707">
        <ele>4.2</ele>
        <time>2019-05-16T22:27:20Z</time>
      </trkpt>
      <trkpt lat="51.230603378203" lon="4.460294142238">
        <ele>0</ele>
        <time>2019-05-16T22:27:31Z</time>
      </trkpt>
      <trkpt lat="51.23055669102" lon="4.459986694146">
        <ele>0</ele>
        <time>2019-05-16T22:27:39Z</time>
      </trkpt>
      <trkpt lat="51.230564737644" lon="4.459680670977">
        <ele>0</ele>
        <time>2019-05-16T22:27:47Z</time>
      </trkpt>
      <trkpt lat="51.230538837573" lon="4.459561228902">
        <ele>0</ele>
        <time>2019-05-16T22:27:50Z</time>
      </trkpt>
    </trkseg>
  </trk>
</gpx>